Time;durP1;ratioP1;P1;durP2;ratioP2;P2;SDS_P1;SDS_P2;PMS_P1;PMS_P2;Temp;Humidity;BMP_temperature;BMP_pressure;BME280_temperature;BME280_humidity;BME280_pressure;Samples;Min_cycle;Max_cycle;Signal;HPM_P1;HPM_P2
2020/12/11 00:01:21;;;;;;;63.60;25.57;;;;;;;-0.08;85.64;100645.31;1795369;80;21323;-78
2020/12/11 00:03:49;;;;;;;58.85;24.63;;;;;;;-0.09;85.67;100640.96;1794463;80;21150;-77
2020/12/11 00:06:24;;;;;;;54.55;23.07;;;;;;;-0.06;85.71;100638.44;1794488;80;21193;-77
2020/12/11 00:08:54;;;;;;;56.28;21.87;;;;;;;-0.06;85.54;100630.67;1794470;79;21113;-76
2020/12/11 00:11:29;;;;;;;49.50;21.07;;;;;;;-0.06;85.43;100630.67;1795085;80;21129;-76
2020/12/11 00:16:49;;;;;;;57.70;24.70;;;;;;;0.03;85.22;100626.92;1777203;79;22587;-74
2020/12/11 00:19:18;;;;;;;54.77;25.17;;;;;;;-0.03;85.23;100634.59;1727616;82;21210;-74
2020/12/11 00:21:48;;;;;;;47.98;22.45;;;;;;;-0.03;85.31;100630.27;1718203;83;21375;-73
2020/12/11 00:24:16;;;;;;;49.63;22.07;;;;;;;0.01;85.04;100629.04;1718506;83;21622;-73
2020/12/11 00:26:46;;;;;;;50.70;22.65;;;;;;;0.02;85.16;100638.53;1718138;83;21340;-74
2020/12/11 00:29:14;;;;;;;55.90;22.45;;;;;;;0.02;85.12;100635.95;1718298;83;21619;-73
2020/12/11 00:31:42;;;;;;;49.77;21.48;;;;;;;0.02;85.22;100631.62;1718200;82;21614;-75
2020/12/11 00:34:11;;;;;;;52.13;21.87;;;;;;;0.04;85.11;100639.43;1718332;83;22202;-72
2020/12/11 00:36:40;;;;;;;50.12;22.45;;;;;;;0.05;85.03;100630.40;1718023;83;21191;-74
2020/12/11 00:39:08;;;;;;;50.88;21.93;;;;;;;0.02;85.27;100629.04;1730930;81;21611;-74
2020/12/11 00:41:39;;;;;;;50.15;19.07;;;;;;;0.02;85.22;100616.09;1741611;81;21163;-73
2020/12/11 00:44:07;;;;;;;43.48;18.67;;;;;;;0.04;85.13;100633.82;1717914;83;21713;-74
2020/12/11 00:46:35;;;;;;;47.40;21.45;;;;;;;0.04;85.00;100624.75;1718114;82;21209;-75
2020/12/11 00:49:03;;;;;;;48.38;18.55;;;;;;;0.03;85.17;100626.92;1718093;83;21745;-74
2020/12/11 00:51:31;;;;;;;54.30;22.77;;;;;;;0.03;85.06;100619.15;1718191;83;21626;-75
2020/12/11 00:53:59;;;;;;;45.80;22.25;;;;;;;0.03;85.11;100615.27;1718121;83;21215;-75
2020/12/11 00:56:27;;;;;;;51.15;22.02;;;;;;;0.01;85.12;100613.07;1718070;83;21210;-74
2020/12/11 00:58:54;;;;;;;45.88;21.27;;;;;;;0.01;85.13;100618.25;1718109;83;21270;-73
2020/12/11 01:01:22;;;;;;;43.65;19.40;;;;;;;0.04;85.06;100625.19;1718177;83;21167;-74
2020/12/11 01:03:50;;;;;;;49.13;20.80;;;;;;;0.04;84.89;100622.17;1718092;83;22266;-74
2020/12/11 01:06:18;;;;;;;45.38;21.15;;;;;;;0.02;84.97;100620.41;1718166;83;21606;-74
2020/12/11 01:08:46;;;;;;;43.02;16.30;;;;;;;0.03;84.86;100620.44;1718055;82;22322;-76
2020/12/11 01:11:14;;;;;;;44.35;19.32;;;;;;;0.03;84.78;100629.50;1718188;83;21191;-76
2020/12/11 01:13:42;;;;;;;39.78;17.62;;;;;;;0.03;84.52;100610.08;1718168;83;21199;-76
2020/12/11 01:16:10;;;;;;;37.73;17.17;;;;;;;0.05;84.19;100617.88;1718514;83;21147;-75
2020/12/11 01:18:37;;;;;;;49.33;19.40;;;;;;;0.01;83.88;100607.89;1719826;82;21602;-78
2020/12/11 01:21:06;;;;;;;35.63;16.77;;;;;;;0.02;83.80;100605.73;1720481;83;21147;-78
2020/12/11 01:23:34;;;;;;;39.85;18.25;;;;;;;0.04;83.63;100616.13;1720580;83;21625;-78
2020/12/11 01:26:02;;;;;;;43.28;19.82;;;;;;;0.01;83.56;100616.09;1720638;83;21210;-78
2020/12/11 01:28:30;;;;;;;38.75;17.82;;;;;;;0.01;83.70;100604.01;1719745;83;21559;-77
2020/12/11 01:30:57;;;;;;;43.85;18.12;;;;;;;0.03;83.20;100617.85;1718887;82;21151;-77
2020/12/11 01:33:26;;;;;;;41.28;18.15;;;;;;;0.02;83.44;100603.14;1720368;83;21123;-78
2020/12/11 01:35:54;;;;;;;44.20;17.48;;;;;;;0.01;83.49;100608.33;1721889;83;21245;-79
2020/12/11 01:38:23;;;;;;;42.10;18.73;;;;;;;-0.02;83.61;100609.16;1722002;83;21824;-78
2020/12/11 01:40:54;;;;;;;35.50;17.32;;;;;;;-0.01;83.43;100616.06;1722019;83;21123;-79
2020/12/11 01:43:24;;;;;;;37.50;17.35;;;;;;;-0.03;83.16;100628.11;1721893;83;21136;-79
2020/12/11 01:45:52;;;;;;;46.53;18.15;;;;;;;-0.06;82.98;100621.61;1721762;82;21095;-78
2020/12/11 01:48:20;;;;;;;36.33;17.50;;;;;;;-0.03;82.84;100608.70;1722352;83;21439;-79
2020/12/11 01:50:50;;;;;;;37.03;18.30;;;;;;;-0.04;82.62;100604.38;1697340;83;21116;-79
2020/12/11 01:53:21;;;;;;;35.73;13.70;;;;;;;-0.04;82.82;100605.67;1722795;83;21139;-81
2020/12/11 01:55:50;;;;;;;34.88;16.02;;;;;;;-0.08;82.15;100618.12;1723073;83;21179;-81
2020/12/11 01:58:21;;;;;;;36.83;17.73;;;;;;;-0.06;82.51;100612.11;1723184;83;21131;-78
2020/12/11 02:00:50;;;;;;;27.22;13.25;;;;;;;-0.08;82.68;100598.70;1696812;83;21397;-78
2020/12/11 02:03:18;;;;;;;39.08;17.35;;;;;;;-0.11;82.51;100609.89;1722808;83;21125;-79
2020/12/11 02:05:49;;;;;;;41.42;18.17;;;;;;;-0.11;82.80;100598.67;1722851;83;21643;-79
2020/12/11 02:08:17;;;;;;;38.25;17.55;;;;;;;-0.14;82.84;100583.08;1722969;82;21065;-80
2020/12/11 02:10:46;;;;;;;33.13;16.97;;;;;;;-0.18;82.86;100594.23;1722772;82;21183;-79
2020/12/11 02:13:14;;;;;;;40.92;16.65;;;;;;;-0.17;82.82;100606.34;1721395;83;21542;-76
2020/12/11 02:15:43;;;;;;;32.25;14.98;;;;;;;-0.22;82.63;100585.14;1718216;83;21234;-75
2020/12/11 02:18:11;;;;;;;39.20;18.12;;;;;;;-0.24;82.88;100593.73;1718411;82;21583;-74
2020/12/11 02:20:38;;;;;;;37.15;16.80;;;;;;;-0.26;83.04;100592.84;1718140;83;21574;-75
2020/12/11 02:23:06;;;;;;;37.42;15.85;;;;;;;-0.24;83.43;100595.03;1718292;83;21194;-75
2020/12/11 02:25:34;;;;;;;24.40;10.70;;;;;;;-0.28;83.24;100601.86;1718291;83;22361;-76
2020/12/11 02:28:02;;;;;;;37.42;17.50;;;;;;;-0.28;83.54;100591.94;1718160;83;21625;-76
2020/12/11 02:30:30;;;;;;;34.63;15.05;;;;;;;-0.27;83.51;100589.39;1691327;83;21198;-76
2020/12/11 02:32:57;;;;;;;39.42;16.93;;;;;;;-0.30;83.25;100594.53;1718243;83;21179;-76
2020/12/11 02:35:26;;;;;;;40.23;16.85;;;;;;;-0.30;83.15;100584.58;1718480;83;21665;-75
2020/12/11 02:37:53;;;;;;;40.30;16.15;;;;;;;-0.28;83.16;100579.86;1718199;83;21586;-74
2020/12/11 02:40:22;;;;;;;48.35;18.70;;;;;;;-0.28;83.26;100583.75;1718286;83;21650;-75
2020/12/11 02:42:51;;;;;;;41.92;18.55;;;;;;;-0.31;82.82;100583.72;1718272;83;21578;-75
2020/12/11 02:45:19;;;;;;;38.23;17.80;;;;;;;-0.32;83.01;100569.05;1718336;82;21186;-75
2020/12/11 02:47:47;;;;;;;37.20;18.20;;;;;;;-0.30;82.80;100585.47;1718417;83;21187;-77
2020/12/11 02:50:15;;;;;;;42.30;18.35;;;;;;;-0.33;82.76;100599.64;1718526;83;22251;-78
2020/12/11 02:52:43;;;;;;;42.30;18.67;;;;;;;-0.32;82.97;100591.05;1718481;83;21650;-79
2020/12/11 02:55:10;;;;;;;45.38;17.95;;;;;;;-0.31;82.71;100588.89;1718557;83;21183;-79
2020/12/11 02:57:40;;;;;;;35.98;17.10;;;;;;;-0.32;82.69;100588.46;1718326;83;21214;-79
2020/12/11 03:00:08;;;;;;;47.30;18.87;;;;;;;-0.34;82.94;100591.44;1718870;83;21146;-80
2020/12/11 03:02:36;;;;;;;42.83;17.60;;;;;;;-0.31;82.80;100594.06;1718932;83;21642;-78
2020/12/11 03:05:03;;;;;;;38.10;17.52;;;;;;;-0.34;82.40;100595.33;1718661;83;21609;-77
2020/12/11 03:07:31;;;;;;;38.83;16.97;;;;;;;-0.34;82.41;100596.63;1718700;83;21720;-78
2020/12/11 03:09:59;;;;;;;33.20;15.72;;;;;;;-0.34;82.17;100596.63;1718687;83;21641;-77
2020/12/11 03:12:27;;;;;;;46.40;17.55;;;;;;;-0.33;82.47;100600.94;1718857;83;21116;-77
2020/12/11 03:14:54;;;;;;;40.00;17.90;;;;;;;-0.35;82.86;100600.04;1718875;83;21638;-77
2020/12/11 03:17:22;;;;;;;41.30;16.93;;;;;;;-0.37;82.91;100603.02;1714228;82;21187;-75
2020/12/11 03:19:51;;;;;;;35.15;16.57;;;;;;;-0.35;82.98;100606.51;1712892;83;22170;-76
2020/12/11 03:22:19;;;;;;;41.85;17.48;;;;;;;-0.37;82.56;100603.02;1712755;83;21570;-75
2020/12/11 03:24:47;;;;;;;31.35;14.00;;;;;;;-0.38;82.52;100600.00;1712558;83;21179;-79
2020/12/11 03:27:15;;;;;;;43.78;16.95;;;;;;;-0.38;82.72;100602.59;1712631;83;21215;-75
2020/12/11 03:29:43;;;;;;;36.20;17.20;;;;;;;-0.38;82.31;100602.59;1712583;83;21179;-76
2020/12/11 03:32:14;;;;;;;42.08;17.98;;;;;;;-0.41;81.68;100597.38;1713063;83;21626;-76
2020/12/11 03:34:42;;;;;;;34.83;15.13;;;;;;;-0.43;81.71;100605.11;1712660;83;21171;-76
2020/12/11 03:37:10;;;;;;;33.15;15.93;;;;;;;-0.45;81.64;100593.00;1698383;83;21688;-76
2020/12/11 03:39:38;;;;;;;48.60;18.25;;;;;;;-0.46;81.85;100593.43;1694703;83;21203;-76
2020/12/11 03:42:07;;;;;;;37.40;15.48;;;;;;;-0.46;82.35;100591.23;1712839;83;21177;-76
2020/12/11 03:44:35;;;;;;;40.73;17.40;;;;;;;-0.47;82.06;100595.55;1712814;82;22201;-76
2020/12/11 03:47:03;;;;;;;39.40;16.50;;;;;;;-0.48;81.82;100587.78;1712909;83;21650;-77
2020/12/11 03:49:31;;;;;;;33.25;14.13;;;;;;;-0.50;81.86;100586.89;1712890;83;21631;-77
2020/12/11 03:51:59;;;;;;;37.03;16.67;;;;;;;-0.52;81.68;100588.58;1722291;78;21581;-63
2020/12/11 03:54:27;;;;;;;38.73;16.75;;;;;;;-0.52;81.73;100596.34;1760802;81;21680;-64
2020/12/11 03:56:55;;;;;;;35.43;15.63;;;;;;;-0.54;81.35;100586.39;1748663;82;22222;-63
2020/12/11 03:59:23;;;;;;;36.20;15.23;;;;;;;-0.56;81.67;100595.41;1748640;82;21193;-63
2020/12/11 04:01:51;;;;;;;28.15;12.90;;;;;;;-0.56;81.85;100598.42;1756592;79;21162;-63
2020/12/11 04:04:20;;;;;;;35.63;16.40;;;;;;;-0.55;81.83;100598.86;1748868;81;22321;-63
2020/12/11 04:06:48;;;;;;;39.23;16.48;;;;;;;-0.56;81.94;100602.31;1759412;79;21174;-63
2020/12/11 04:09:16;;;;;;;39.65;16.37;;;;;;;-0.58;82.17;100606.59;1806917;79;21539;-64
2020/12/11 04:11:44;;;;;;;35.90;15.72;;;;;;;-0.59;82.08;100600.98;1814276;78;21638;-63
2020/12/11 04:14:12;;;;;;;34.63;15.83;;;;;;;-0.59;81.68;100600.98;1814208;78;21146;-63
2020/12/11 04:16:40;;;;;;;30.55;14.78;;;;;;;-0.62;81.54;100607.38;1814196;79;22220;-63
2020/12/11 04:19:08;;;;;;;40.67;16.57;;;;;;;-0.60;81.94;100606.98;1814220;78;21107;-63
2020/12/11 04:21:36;;;;;;;36.38;16.32;;;;;;;-0.62;81.76;100620.31;1814188;79;21190;-64
2020/12/11 04:24:04;;;;;;;39.03;16.87;;;;;;;-0.66;81.58;100611.22;1798120;79;21909;-62
2020/12/11 04:26:32;;;;;;;39.92;17.40;;;;;;;-0.64;81.52;100608.23;1754572;81;21627;-63
2020/12/11 04:28:59;;;;;;;34.67;15.03;;;;;;;-0.65;81.40;100611.65;1739945;82;21390;-63
2020/12/11 04:31:27;;;;;;;36.68;16.30;;;;;;;-0.67;80.90;100608.20;1739956;82;21203;-63
2020/12/11 04:33:55;;;;;;;36.23;14.68;;;;;;;-0.66;81.41;100616.39;1739984;81;21166;-63
2020/12/11 04:36:23;;;;;;;28.77;14.38;;;;;;;-0.68;81.70;100611.61;1740091;82;21255;-63
2020/12/11 04:38:53;;;;;;;32.30;15.65;;;;;;;-0.67;81.71;100617.25;1740129;82;21200;-63
2020/12/11 04:41:21;;;;;;;38.67;17.30;;;;;;;-0.69;81.37;100608.98;1740076;82;22391;-64
2020/12/11 04:43:52;;;;;;;33.80;16.97;;;;;;;-0.69;81.51;100613.77;1738084;82;21226;-64
2020/12/11 04:46:20;;;;;;;32.90;13.65;;;;;;;-0.70;81.19;100608.12;1740202;82;21633;-64
2020/12/11 04:48:49;;;;;;;37.88;16.12;;;;;;;-0.75;81.29;100613.66;1715158;82;21152;-65
2020/12/11 04:51:17;;;;;;;35.17;17.67;;;;;;;-0.77;81.34;100613.18;1739934;82;21238;-65
2020/12/11 04:53:45;;;;;;;40.85;18.70;;;;;;;-0.76;81.59;100623.56;1740002;82;21570;-65
2020/12/11 04:56:13;;;;;;;37.10;15.68;;;;;;;-0.76;81.62;100623.96;1740054;82;21219;-64
2020/12/11 04:58:41;;;;;;;41.83;16.60;;;;;;;-0.79;80.72;100629.95;1739769;81;21450;-65
2020/12/11 05:01:09;;;;;;;35.92;16.05;;;;;;;-0.83;80.54;100619.10;1691552;82;21638;-64
2020/12/11 05:03:37;;;;;;;32.98;15.53;;;;;;;-0.83;80.20;100621.69;1691502;82;21163;-64
2020/12/11 05:06:04;;;;;;;38.50;17.40;;;;;;;-0.82;80.36;100629.91;1739995;82;21232;-65
2020/12/11 05:08:34;;;;;;;42.00;16.82;;;;;;;-0.86;80.03;100625.52;1750350;80;21191;-66
2020/12/11 05:11:02;;;;;;;45.12;18.20;;;;;;;-0.86;80.53;100628.11;1761082;81;21215;-64
2020/12/11 05:13:29;;;;;;;35.52;16.57;;;;;;;-0.88;80.76;100625.92;1761033;81;21158;-65
2020/12/11 05:16:10;;;;;;;36.58;16.23;;;;;;;-0.87;80.94;100622.50;1761220;81;21596;-65
2020/12/11 05:18:38;;;;;;;35.40;15.98;;;;;;;-0.87;81.02;100624.66;1761241;81;21363;-65
2020/12/11 05:21:22;;;;;;;42.80;17.32;;;;;;;-0.88;80.70;100629.80;1761150;81;21696;-64
2020/12/11 05:24:00;;;;;;;34.30;13.62;;;;;;;-0.90;80.82;100640.53;1761218;81;21590;-64
2020/12/11 05:26:36;;;;;;;39.63;16.40;;;;;;;-0.97;80.30;100633.52;1761130;81;21219;-65
2020/12/11 05:29:04;;;;;;;34.35;14.93;;;;;;;-1.01;80.60;100635.58;1761013;81;21644;-64
2020/12/11 05:31:32;;;;;;;34.95;15.05;;;;;;;-1.06;80.14;100642.86;1761075;81;21357;-64
2020/12/11 05:34:05;;;;;;;29.20;13.05;;;;;;;-1.09;80.28;100645.37;1750748;81;21657;-66
2020/12/11 05:36:53;;;;;;;31.55;15.60;;;;;;;-1.14;79.97;100644.42;1746132;82;21119;-66
2020/12/11 05:39:33;;;;;;;34.65;14.70;;;;;;;-1.17;80.00;100648.25;1746297;82;21144;-64
2020/12/11 05:42:05;;;;;;;33.10;15.72;;;;;;;-1.23;79.52;100649.84;1746389;82;25039;-64
2020/12/11 05:44:33;;;;;;;28.65;12.75;;;;;;;-1.27;79.73;100645.92;1746057;82;21622;-66
2020/12/11 05:47:24;;;;;;;42.53;17.98;;;;;;;-1.33;79.43;100646.22;1746050;82;21167;-66
2020/12/11 05:49:53;;;;;;;28.38;13.70;;;;;;;-1.34;79.85;100656.95;1746161;82;21190;-66
2020/12/11 05:52:24;;;;;;;31.27;13.00;;;;;;;-1.39;78.93;100653.41;1746185;81;21630;-66
2020/12/11 05:54:55;;;;;;;38.78;16.55;;;;;;;-1.45;79.13;100650.69;1746110;82;21250;-64
2020/12/11 05:57:24;;;;;;;45.95;20.23;;;;;;;-1.43;79.85;100657.19;1746364;82;21386;-67
2020/12/11 05:59:52;;;;;;;36.53;14.70;;;;;;;-1.44;79.91;100661.92;1746110;82;21179;-68
2020/12/11 06:02:20;;;;;;;40.63;16.42;;;;;;;-1.46;79.73;100661.88;1746253;82;21159;-67
2020/12/11 06:04:48;;;;;;;32.80;13.85;;;;;;;-1.49;79.69;100665.28;1722632;82;21146;-66
2020/12/11 06:07:17;;;;;;;42.98;17.75;;;;;;;-1.50;79.57;100666.09;1702647;83;21152;-67
2020/12/11 06:09:45;;;;;;;34.53;14.20;;;;;;;-1.55;79.48;100672.89;1762577;80;21256;-67
2020/12/11 06:12:15;;;;;;;38.53;17.45;;;;;;;-1.57;79.16;100669.40;1788735;80;21565;-65
2020/12/11 06:15:13;;;;;;;35.40;15.32;;;;;;;-1.62;78.82;100672.73;1743026;81;21194;-65
2020/12/11 06:18:00;;;;;;;35.08;15.03;;;;;;;-1.66;78.98;100665.33;1733039;81;21206;-65
2020/12/11 06:20:28;;;;;;;40.23;17.07;;;;;;;-1.68;78.92;100673.47;1732250;82;21678;-66
2020/12/11 06:23:30;;;;;;;34.80;15.65;;;;;;;-1.71;79.39;100669.53;1729744;81;21267;-66
2020/12/11 06:26:02;;;;;;;36.17;15.28;;;;;;;-1.72;79.27;100658.77;1757418;81;21166;-66
2020/12/11 06:28:48;;;;;;;42.83;18.10;;;;;;;-1.79;78.78;100671.97;1765037;81;21210;-66
2020/12/11 06:31:21;;;;;;;39.73;18.32;;;;;;;-1.80;79.26;100662.88;1757476;81;21182;-67
2020/12/11 06:33:55;;;;;;;39.85;17.40;;;;;;;-1.82;79.45;100667.14;1765047;81;21182;-67
2020/12/11 06:36:23;;;;;;;37.78;16.20;;;;;;;-1.84;79.27;100661.96;1765102;81;21212;-67
2020/12/11 06:38:57;;;;;;;35.13;14.70;;;;;;;-1.86;79.07;100670.48;1757236;81;21184;-66
2020/12/11 06:41:36;;;;;;;44.80;16.77;;;;;;;-1.91;78.56;100673.86;1733035;82;21150;-66
2020/12/11 06:44:17;;;;;;;34.30;14.75;;;;;;;-1.97;78.69;100665.97;1757367;81;21226;-66
2020/12/11 06:47:06;;;;;;;36.93;15.63;;;;;;;-2.00;79.14;100673.66;1764934;81;21139;-66
2020/12/11 06:49:39;;;;;;;40.95;16.27;;;;;;;-1.99;79.30;100668.06;1765112;81;21174;-66
2020/12/11 06:52:12;;;;;;;39.63;16.45;;;;;;;-2.03;79.53;100669.69;1730799;81;21242;-66
2020/12/11 06:54:46;;;;;;;42.27;18.05;;;;;;;-2.07;79.03;100658.88;1764867;81;22248;-66
2020/12/11 06:57:15;;;;;;;39.18;16.40;;;;;;;-2.21;79.07;100642.17;1764977;81;21221;-66
2020/12/11 06:59:45;;;;;;;32.65;14.98;;;;;;;-2.15;78.78;100653.52;1707029;81;21222;-66
2020/12/11 07:02:16;;;;;;;34.03;14.10;;;;;;;-2.17;78.46;100660.77;1733002;82;21222;-66
2020/12/11 07:04:51;;;;;;;37.63;15.77;;;;;;;-2.21;78.84;100658.95;1757279;81;21174;-66
2020/12/11 07:07:21;;;;;;;37.45;17.45;;;;;;;-2.25;78.13;100657.16;1733028;82;21614;-66
2020/12/11 07:09:51;;;;;;;38.30;16.65;;;;;;;-2.26;78.81;100655.39;1712937;82;21186;-68
2020/12/11 07:12:19;;;;;;;37.78;16.27;;;;;;;-2.27;78.24;100652.38;1751192;81;21212;-67
2020/12/11 07:14:47;;;;;;;38.88;16.02;;;;;;;-2.26;78.22;100650.23;1751067;81;22361;-69
2020/12/11 07:17:29;;;;;;;32.80;14.90;;;;;;;-2.26;78.13;100659.27;1751122;81;21201;-68
2020/12/11 07:19:57;;;;;;;29.70;13.22;;;;;;;-2.27;78.52;100649.38;1751256;81;21200;-67
2020/12/11 07:22:26;;;;;;;38.67;15.75;;;;;;;-2.29;78.39;100646.30;1751202;81;21192;-67
2020/12/11 07:24:54;;;;;;;39.48;16.80;;;;;;;-2.33;78.18;100635.89;1770692;79;21241;-67
2020/12/11 07:27:21;;;;;;;41.05;16.45;;;;;;;-2.34;78.37;100641.04;1734994;80;21385;-66
2020/12/11 07:29:50;;;;;;;43.20;18.52;;;;;;;-2.36;78.08;100637.55;1762386;80;21473;-69
2020/12/11 07:32:20;;;;;;;39.58;17.45;;;;;;;-2.36;78.21;100639.70;1763442;80;21138;-69
2020/12/11 07:34:54;;;;;;;46.68;19.80;;;;;;;-2.34;78.47;100639.32;1762726;81;21691;-70
2020/12/11 07:37:24;;;;;;;40.70;16.52;;;;;;;-2.29;78.81;100635.98;1777336;80;21136;-70
2020/12/11 07:39:54;;;;;;;47.35;19.55;;;;;;;-2.24;78.81;100633.95;1747681;80;22307;-70
2020/12/11 07:42:24;;;;;;;51.85;21.10;;;;;;;-2.18;78.39;100631.95;1788480;80;21182;-70
2020/12/11 07:44:52;;;;;;;44.93;17.15;;;;;;;-2.14;78.20;100633.73;1788403;80;21163;-70
2020/12/11 07:47:20;;;;;;;55.28;22.27;;;;;;;-2.10;77.66;100636.84;1788367;80;21154;-69
2020/12/11 07:49:48;;;;;;;51.30;20.10;;;;;;;-2.06;77.59;100629.63;1788258;80;21661;-69
2020/12/11 07:54:56;;;;;;;37.07;17.00;;;;;;;-1.96;76.84;100631.56;1853781;76;22815;-71
2020/12/11 07:57:25;;;;;;;47.70;18.98;;;;;;;-2.01;76.91;100638.34;1826690;76;21170;-66
2020/12/11 08:00:03;;;;;;;39.78;17.55;;;;;;;-2.01;77.41;100635.76;1828573;78;21429;-68
2020/12/11 08:02:34;;;;;;;42.62;18.37;;;;;;;-1.94;76.96;100636.77;1814496;77;21132;-68
2020/12/11 08:05:10;;;;;;;38.10;18.87;;;;;;;-1.92;76.57;100633.37;1813353;79;21059;-68
2020/12/11 08:07:39;;;;;;;36.45;16.70;;;;;;;-1.87;76.85;100633.48;1822110;78;21218;-67
2020/12/11 08:10:13;;;;;;;46.42;19.12;;;;;;;-1.81;76.65;100631.46;1825322;78;21629;-67
2020/12/11 08:12:44;;;;;;;45.28;17.67;;;;;;;-1.77;76.34;100639.30;1821526;78;20988;-67
2020/12/11 08:15:14;;;;;;;45.12;20.08;;;;;;;-1.69;75.96;100634.29;1832490;77;21184;-66
2020/12/11 08:17:44;;;;;;;43.28;18.95;;;;;;;-1.46;76.34;100638.62;1810144;77;21182;-66
2020/12/11 08:20:19;;;;;;;37.00;16.85;;;;;;;-1.22;75.24;100643.42;1847867;77;21157;-69
2020/12/11 08:22:51;;;;;;;43.58;18.25;;;;;;;-0.91;74.14;100648.72;1825224;78;21189;-67
2020/12/11 08:25:26;;;;;;;36.10;15.70;;;;;;;-0.82;73.59;100638.96;1825041;78;21363;-66
2020/12/11 08:28:02;;;;;;;41.75;18.30;;;;;;;-0.75;72.87;100638.22;1833006;76;21122;-66
2020/12/11 08:30:52;;;;;;;41.00;17.50;;;;;;;-0.72;72.59;100638.27;1864324;76;21118;-66
2020/12/11 08:33:29;;;;;;;34.88;17.40;;;;;;;-0.70;72.81;100641.75;1845619;76;21196;-67
2020/12/11 08:35:57;;;;;;;47.15;18.80;;;;;;;-0.68;72.50;100634.89;1849799;77;21094;-66
2020/12/11 08:38:25;;;;;;;41.55;15.95;;;;;;;-0.69;71.66;100640.92;1840522;76;21738;-68
2020/12/11 08:40:53;;;;;;;44.25;21.75;;;;;;;-0.73;71.55;100631.36;1797319;78;21155;-66
2020/12/11 08:43:31;;;;;;;38.70;19.37;;;;;;;-0.75;71.57;100630.46;1797661;78;21193;-67
2020/12/11 08:49:07;;;;;;;44.98;20.75;;;;;;;-0.97;71.96;100626.62;1806057;78;21182;-66
2020/12/11 08:51:30;;;;;;;29.32;12.53;;;;;;;-1.12;72.76;100618.18;1776366;80;21246;-65
2020/12/11 08:54:06;;;;;;;44.25;17.77;;;;;;;-1.34;73.04;100627.66;1779754;80;21602;-66
2020/12/11 08:56:33;;;;;;;43.70;19.45;;;;;;;-1.54;73.67;100625.97;1781969;79;21198;-66
2020/12/11 08:59:01;;;;;;;42.20;19.50;;;;;;;-1.55;75.31;100619.94;1768965;79;21808;-66
2020/12/11 09:01:29;;;;;;;41.55;19.65;;;;;;;-1.49;74.66;100616.20;1788863;79;21217;-65
2020/12/11 09:03:57;;;;;;;39.53;18.02;;;;;;;-1.58;73.93;100610.84;1811536;78;22130;-67
2020/12/11 09:06:26;;;;;;;44.30;18.67;;;;;;;-1.64;74.52;100617.17;1813239;78;21305;-67
2020/12/11 09:08:53;;;;;;;55.40;23.85;;;;;;;-1.62;74.62;100616.78;1798706;78;21385;-67
2020/12/11 09:11:21;;;;;;;46.53;20.23;;;;;;;-1.63;74.89;100611.18;1818209;78;21641;-70
2020/12/11 09:13:50;;;;;;;45.17;19.52;;;;;;;-1.64;75.12;100612.00;1825985;78;21174;-67
2020/12/11 09:16:17;;;;;;;52.27;21.42;;;;;;;-1.66;75.13;100611.52;1825714;78;21199;-68
2020/12/11 09:18:45;;;;;;;34.35;17.23;;;;;;;-1.76;74.87;100607.89;1814430;78;22031;-67
2020/12/11 09:21:16;;;;;;;;;;;;;;;-1.79;75.79;100597.52;1816033;78;21566;-68
2020/12/11 09:23:44;;;;;;;36.45;15.88;;;;;;;-1.85;75.66;100611.14;1812823;79;20279;-67
2020/12/11 09:26:13;;;;;;;44.35;20.00;;;;;;;-1.91;76.19;100619.65;1812642;78;21411;-68
2020/12/11 09:28:45;;;;;;;42.20;18.45;;;;;;;-1.93;76.22;100612.28;1821018;78;21372;-68
2020/12/11 09:31:10;;;;;;;58.40;26.05;;;;;;;-1.93;76.19;100612.28;1827861;78;21861;-67
2020/12/11 09:33:41;;;;;;;39.70;17.77;;;;;;;-1.87;76.54;100611.95;1826528;78;21542;-67
2020/12/11 09:36:08;;;;;;;39.08;18.25;;;;;;;-1.91;75.63;100613.19;1826649;78;21189;-66
2020/12/11 09:38:37;;;;;;;55.28;22.22;;;;;;;-1.99;75.60;100608.27;1826589;78;21562;-66
2020/12/11 09:41:07;;;;;;;44.45;19.73;;;;;;;-2.06;76.14;100602.53;1826392;78;21291;-66
2020/12/11 09:46:55;;;;;;;45.28;18.70;;;;;;;-2.10;76.94;100594.27;1823867;78;21586;-66
2020/12/11 09:54:34;;;;;;;28.17;13.43;;;;;;;-2.28;75.96;100596.02;1775822;78;21351;-67
2020/12/11 09:57:01;;;;;;;37.55;16.60;;;;;;;-2.35;76.40;100591.16;1762587;81;21202;-66
2020/12/11 10:02:21;;;;;;;37.83;18.53;;;;;;;-2.36;76.55;100584.23;1866901;76;22611;-67
2020/12/11 10:04:47;;;;;;;47.30;20.80;;;;;;;-2.41;76.29;100583.27;1856799;77;21569;-66
2020/12/11 10:07:20;;;;;;;42.60;19.15;;;;;;;-2.42;76.88;100577.64;1812646;78;21369;-67
2020/12/11 10:09:50;;;;;;;36.33;17.95;;;;;;;-2.48;76.71;100578.81;1802658;79;21630;-65
2020/12/11 10:12:22;;;;;;;38.78;17.17;;;;;;;-2.45;77.20;100578.88;1799889;78;21163;-66
2020/12/11 10:14:56;;;;;;;43.30;15.38;;;;;;;-2.45;76.28;100578.88;1812100;78;21148;-69
2020/12/11 10:17:19;;;;;;;42.13;19.00;;;;;;;-2.51;76.69;100576.14;1785705;79;21176;-66
2020/12/11 10:19:48;;;;;;;44.80;19.03;;;;;;;-2.51;77.66;100563.25;1799280;78;22291;-67
2020/12/11 10:22:16;;;;;;;39.70;17.98;;;;;;;-2.49;77.27;100569.31;1810026;78;21160;-66
2020/12/11 10:24:46;;;;;;;30.88;13.62;;;;;;;-2.48;77.10;100557.31;1797841;77;21781;-68
2020/12/11 10:27:15;;;;;;;46.42;19.05;;;;;;;-2.51;76.45;100565.83;1802262;78;24191;-65
2020/12/11 10:29:42;;;;;;;43.52;19.48;;;;;;;-2.55;77.27;100558.87;1813301;78;21175;-66
2020/12/11 10:32:10;;;;;;;46.90;19.27;;;;;;;-2.58;77.77;100563.95;1813202;79;21606;-66
2020/12/11 10:34:39;;;;;;;41.40;18.70;;;;;;;-2.55;77.09;100558.87;1812751;79;21114;-66
2020/12/11 10:37:08;;;;;;;64.93;25.47;;;;;;;-2.54;77.39;100558.03;1813349;79;21126;-66
2020/12/11 10:39:36;;;;;;;47.37;19.83;;;;;;;-2.53;76.83;100550.77;1813437;79;21181;-65
2020/12/11 10:42:04;;;;;;;41.87;18.37;;;;;;;-2.54;77.25;100547.71;1813329;79;21167;-66
2020/12/11 10:44:32;;;;;;;39.95;20.70;;;;;;;-2.52;77.03;100548.63;1813304;79;21206;-64
2020/12/11 10:47:00;;;;;;;38.43;18.60;;;;;;;-2.52;77.28;100543.47;1812588;79;21210;-65
2020/12/11 10:49:29;;;;;;;42.13;17.52;;;;;;;-2.54;76.75;100550.30;1804433;79;21168;-66
2020/12/11 10:51:56;;;;;;;38.80;18.57;;;;;;;-2.54;77.11;100551.58;1781314;79;21699;-65
2020/12/11 10:54:27;;;;;;;38.83;18.85;;;;;;;-2.59;77.29;100546.31;1781306;79;21144;-66
2020/12/11 10:56:55;;;;;;;39.55;20.17;;;;;;;-2.59;77.18;100557.06;1781358;80;21700;-65
2020/12/11 10:59:24;;;;;;;37.25;17.67;;;;;;;-2.64;77.70;100547.93;1780624;79;21215;-65
2020/12/11 11:01:53;;;;;;;37.43;17.60;;;;;;;-2.60;77.48;100550.14;1807779;78;21142;-64
2020/12/11 11:04:21;;;;;;;39.60;18.85;;;;;;;-2.57;77.69;100547.66;1820457;78;21609;-64
2020/12/11 11:06:54;;;;;;;40.95;18.98;;;;;;;-2.57;77.04;100550.23;1820493;78;21186;-65
2020/12/11 11:09:43;;;;;;;45.48;20.02;;;;;;;-2.54;77.60;100547.71;1801988;79;21550;-66
2020/12/11 11:12:18;;;;;;;45.93;18.67;;;;;;;-2.51;77.88;100546.48;1813374;79;21621;-64
2020/12/11 11:28:08;;;;;;;40.97;18.27;;;;;;;-2.63;77.77;100546.22;1781426;80;21471;-67
2020/12/11 11:30:36;;;;;;;31.87;15.97;;;;;;;-2.72;76.92;100548.16;1758353;81;21213;-68
2020/12/11 11:33:04;;;;;;;42.23;20.57;;;;;;;-2.81;77.12;100546.22;1755713;80;21194;-67
2020/12/11 11:35:32;;;;;;;39.27;18.65;;;;;;;-2.86;77.82;100539.23;1785835;79;21185;-66
2020/12/11 11:38:01;;;;;;;40.90;19.53;;;;;;;-2.90;77.92;100535.70;1785255;79;21722;-68
2020/12/11 11:40:29;;;;;;;49.17;21.97;;;;;;;-2.90;78.36;100536.12;1772627;79;21620;-68
2020/12/11 11:42:58;;;;;;;36.43;16.40;;;;;;;-2.89;78.20;100541.75;1763056;80;21662;-66
2020/12/11 11:45:30;;;;;;;36.60;18.82;;;;;;;-2.92;78.37;100539.97;1771789;80;26832;-66
2020/12/11 11:47:57;;;;;;;38.17;19.83;;;;;;;-2.92;78.51;100529.66;1785365;79;21209;-66
2020/12/11 11:50:48;;;;;;;58.35;25.10;;;;;;;-2.91;78.74;100535.25;1769528;81;21618;-66
2020/12/11 11:55:58;;;;;;;49.83;22.10;;;;;;;-2.97;78.59;100542.83;1841519;76;22672;-76
2020/12/11 11:58:26;;;;;;;43.50;19.40;;;;;;;-3.08;78.19;100539.11;1784615;79;21609;-77